• Join FlightAware (Why Join?)
  • Login
  • US Flag 
08:37AM EDT


 

Airport Tracker/Info


-or-


 

Live Flight TrackerFlight Track Log ✈ CHQ6401 ✈ 12-Jun-2013 ✈ KDTW - KSYR

Flight Track Log - Related Links

Times and Time Zones

All times are in EDT time to prevent confusion due to time zone crossing. See the CHQ6401 flight status page for this flight to view local times or setup timezone preferences in your user account.

Time Position Orientation Groundspeed Altitude Reporting Facility
EDT Latitude Longitude Course Direction KTS MPH feet Rate Location/Type
02:33PM 42.1994 -83.3581 82° East 159 183 1,300  Level Cleveland Center
02:34PM 42.1431 -83.3583 180° South 200 230 3,600 1,680 Climbing Cleveland Center
02:35PM 42.0917 -83.3283 157° South 256 295 5,000 1,500 Climbing Cleveland Center
02:36PM 42.2839 -82.9140 75° East  Level FlightAware Approximate
02:36PM 42.0669 -83.2292 109° East 290 334 6,700  Level Cleveland Center
02:37PM 42.3129 -82.7688 75° East  Level FlightAware Approximate
02:37PM 42.1047 -83.1300 63° Northeast 281 323 8,800  Level Cleveland Center
02:38PM 42.3297 -82.6202 82° East  Level FlightAware Approximate
02:38PM 42.1403 -83.0278 65° Northeast 325 374 10,000  Level Cleveland Center
02:39PM 42.1844 -82.9147 62° Northeast 336 387 11,200 1,260 Climbing Cleveland Center
02:40PM 42.2325 -82.7958 61° Northeast 341 392 12,600 1,440 Climbing Cleveland Center
02:41PM 42.2806 -82.6739 62° Northeast 352 405 14,100 1,440 Climbing Cleveland Center
02:42PM 42.3308 -82.5436 62° Northeast 370 426 15,500 1,380 Climbing Cleveland Center
02:43PM 42.3686 -82.4156 68° East 370 426 16,900 1,260 Climbing Cleveland Center
02:44PM 42.3667 -82.2664 91° East 370 426 18,100 1,260 Climbing Cleveland Center
02:45PM 42.3753 -82.0981 86° East 393 452 19,400 1,020 Climbing Cleveland Center
02:46PM 42.3833 -81.9408 86° East 411 473 20,200 780 Climbing Cleveland Center
02:47PM 42.3914 -81.7753 86° East 433 498 21,000 780 Climbing Cleveland Center
02:48PM 42.3994 -81.6067 86° East 448 516 21,800 780 Climbing Cleveland Center
02:49PM 42.4236 -81.4608 77° East 453 521 22,600 900 Climbing Cleveland Center
02:50PM 42.4642 -81.2953 72° East 448 516 23,600 1,020 Climbing Cleveland Center
02:51PM 42.4756 -81.1236 85° East 453 521 24,700 1,020 Climbing Cleveland Center
02:52PM 42.4783 -80.9492 89° East 458 527 25,700 1,020 Climbing Cleveland Center
02:53PM 42.4808 -80.7775 89° East 465 535 26,800 600 Climbing Cleveland Center
02:54PM 42.4853 -80.5803 88° East 471 542 27,000 60 Climbing Cleveland Center
02:55PM 42.5142 -80.3972 78° East 476 548 27,000  Level Cleveland Center
02:56PM 42.5492 -80.2167 75° East 489 563 27,000  Level Cleveland Center
02:57PM 42.5797 -80.0306 77° East 495 570 27,000 -180 Level Cleveland Center
02:58PM 42.6161 -79.8411 75° East 505 581 26,700 -600 Descending Cleveland Center
02:59PM 42.6483 -79.6517 77° East 511 588 25,800 -900 Descending Cleveland Center
03:00PM 42.6778 -79.4647 78° East 511 588 25,000 -420 Descending Cleveland Center
03:01PM 42.7050 -79.2836 78° East 506 582 25,000  Level Cleveland Center
03:02PM 42.7322 -79.1133 78° East 477 549 25,000  Level Cleveland Center
03:03PM 42.7614 -78.9458 77° East 462 532 25,000  Level Cleveland Center
03:04PM 42.7858 -78.7783 79° East 451 519 25,000  Level Cleveland Center
03:05PM 42.8144 -78.6078 77° East 451 519 25,000  Level Cleveland Center
03:06PM 42.8403 -78.4314 79° East 451 519 25,000  Level Cleveland Center
03:07PM 42.8683 -78.2547 78° East 461 531 25,000  Level Cleveland Center
03:08PM 42.8936 -78.0750 79° East 473 544 25,000  Level Cleveland Center
03:09PM 42.9189 -77.8956 79° East 473 544 25,000 -420 Level Cleveland Center
03:10PM 42.9458 -77.7242 78° East 468 539 24,200 -900 Descending Cleveland Center
03:11PM 42.9706 -77.5497 79° East 468 539 23,200 -1,320 Descending Cleveland Center
03:12PM 42.9972 -77.3725 78° East 468 539 21,600 -1,800 Descending Cleveland Center
03:13PM 43.0214 -77.2036 79° East 468 539 19,600 -2,040 Descending Cleveland Center
03:15PM 43.0597 -76.9392 79° East 435 501 16,400 -1,980 Descending Boston Center
03:16PM 43.0825 -76.7817 79° East 428 493 14,400 -1,980 Descending Boston Center
03:17PM 43.1028 -76.6322 79° East 399 459 12,400 -1,920 Descending Boston Center
03:18PM 43.1228 -76.4858 79° East 351 404 10,600 -1,380 Descending Boston Center
03:19PM 43.1392 -76.3700 79° East 297 342 9,700 -840 Descending Boston Center
03:20PM 43.1533 -76.2656 79° East 274 315 9,000 -720 Descending Boston Center
03:21PM 43.1631 -76.1581 83° East 276 318 8,300 -1,320 Descending Boston Center
03:22PM 43.1769 -76.0536 80° East 271 312 6,400 -1,680 Descending Boston Center
03:23PM 43.1881 -75.9572 81° East 251 289 5,000 -1,440 Descending Boston Center
03:24PM 43.1781 -75.8742 99° East 237 273 3,500 -1,500 Descending Boston Center